Time;durP1;ratioP1;P1;durP2;ratioP2;P2;SDS_P1;SDS_P2;PMS_P1;PMS_P2;Temp;Humidity;BMP_temperature;BMP_pressure;BME280_temperature;BME280_humidity;BME280_pressure;Samples;Min_cycle;Max_cycle;Signal;HPM_P1;HPM_P2
2022/05/23 00:00:51;;;;;;;49.73;47.03;;;;;;;14.38;100.00;100713.16;1888243;74;26222;-79
2022/05/23 00:03:21;;;;;;;47.73;45.13;;;;;;;14.34;100.00;100704.28;1896350;74;26312;-80
2022/05/23 00:08:57;;;;;;;50.10;47.40;;;;;;;14.42;100.00;100691.82;2060715;69;32650;-74
2022/05/23 00:11:27;;;;;;;50.33;47.73;;;;;;;14.30;100.00;100690.69;2012112;70;26253;-75
2022/05/23 00:13:58;;;;;;;53.03;50.33;;;;;;;14.42;100.00;100686.23;2013971;70;26203;-83
2022/05/23 00:16:31;;;;;;;50.53;47.83;;;;;;;14.05;100.00;100676.72;1932091;73;26326;-74
2022/05/23 00:19:02;;;;;;;51.13;48.53;;;;;;;14.32;100.00;100665.50;1940552;73;26294;-81
2022/05/23 00:21:32;;;;;;;51.97;49.10;;;;;;;14.16;100.00;100671.19;1931433;73;26237;-82
2022/05/23 00:24:03;;;;;;;51.33;48.53;;;;;;;14.12;100.00;100659.78;1931046;73;26223;-74
2022/05/23 00:26:36;;;;;;;50.07;47.50;;;;;;;14.25;100.00;100663.69;1935577;73;26260;-74
2022/05/23 00:29:06;;;;;;;53.07;50.03;;;;;;;14.11;100.00;100658.72;1968780;72;26765;-83
2022/05/23 00:31:36;;;;;;;51.23;48.60;;;;;;;14.11;100.00;100665.14;1937704;74;26188;-83
2022/05/23 00:36:54;;;;;;;54.93;51.97;;;;;;;14.29;100.00;100654.13;1934817;73;26228;-83
2022/05/23 00:39:25;;;;;;;53.00;50.30;;;;;;;14.19;100.00;100657.14;1969653;72;26218;-74
2022/05/23 00:44:43;;;;;;;54.10;51.10;;;;;;;14.05;100.00;100651.58;1966229;72;26269;-77
2022/05/23 00:47:20;;;;;;;54.90;51.93;;;;;;;14.00;100.00;100648.89;1932523;73;26262;-74
2022/05/23 00:49:51;;;;;;;56.50;53.43;;;;;;;13.85;100.00;100656.22;2008533;70;26713;-83
2022/05/23 00:55:32;;;;;;;53.23;50.43;;;;;;;14.00;100.00;100634.36;2039485;69;32642;-83
2022/05/23 01:01:14;;;;;;;54.87;51.97;;;;;;;14.04;100.00;100624.22;2041491;69;32658;-75
2022/05/23 01:03:44;;;;;;;60.37;56.97;;;;;;;13.81;100.00;100630.06;1945658;73;26176;-76
2022/05/23 01:06:14;;;;;;;65.93;62.43;;;;;;;13.85;100.00;100620.75;1935731;73;26215;-76
2022/05/23 01:08:47;;;;;;;66.63;62.93;;;;;;;13.58;100.00;100616.02;1942192;73;26237;-77
2022/05/23 01:11:18;;;;;;;66.63;62.90;;;;;;;13.57;100.00;100611.57;1938218;74;26196;-76
2022/05/23 01:13:49;;;;;;;70.93;66.93;;;;;;;13.52;100.00;100606.09;1938204;73;26661;-77
2022/05/23 01:16:19;;;;;;;71.47;67.27;;;;;;;13.38;100.00;100616.45;1966356;72;26215;-75
2022/05/23 01:18:50;;;;;;;73.13;68.77;;;;;;;12.93;100.00;100609.73;1934831;73;26250;-78
2022/05/23 01:21:26;;;;;;;74.87;70.30;;;;;;;13.04;100.00;100607.04;1941061;73;26221;-78
2022/05/23 01:27:06;;;;;;;73.80;69.30;;;;;;;12.72;100.00;100594.52;2056449;69;32608;-75
2022/05/23 01:29:37;;;;;;;74.07;69.57;;;;;;;12.58;100.00;100598.64;1939525;73;26666;-84
2022/05/23 01:32:09;;;;;;;76.23;71.60;;;;;;;12.54;100.00;100603.17;1935256;73;26672;-83
2022/05/23 01:34:42;;;;;;;74.67;69.93;;;;;;;12.68;100.00;100594.30;1968480;72;26318;-83
2022/05/23 01:37:11;;;;;;;75.20;70.50;;;;;;;12.86;100.00;100588.98;1939408;74;26180;-82
2022/05/23 01:39:42;;;;;;;72.50;68.20;;;;;;;13.12;100.00;100591.02;1934310;73;26224;-83
2022/05/23 01:42:12;;;;;;;75.53;70.97;;;;;;;13.16;100.00;100585.64;1944115;73;26277;-82
2022/05/23 01:44:42;;;;;;;74.93;70.53;;;;;;;12.98;100.00;100578.98;1968458;72;26714;-74
2022/05/23 01:47:16;;;;;;;74.00;69.77;;;;;;;13.02;100.00;100566.64;1937815;73;26310;-74
2022/05/23 01:49:47;;;;;;;73.20;68.73;;;;;;;13.13;100.00;100575.11;1935834;73;26224;-74
2022/05/23 01:52:17;;;;;;;76.33;71.77;;;;;;;12.90;100.00;100576.91;2011282;70;26285;-74
2022/05/23 01:54:47;;;;;;;75.90;71.50;;;;;;;12.79;100.00;100574.06;2008645;70;26708;-82
2022/05/23 01:57:17;;;;;;;73.87;69.40;;;;;;;12.92;100.00;100571.03;1982333;72;26695;-82
2022/05/23 02:05:56;;;;;;;74.67;69.97;;;;;;;12.97;100.00;100568.95;2054037;69;33170;-78
2022/05/23 02:08:26;;;;;;;73.53;68.93;;;;;;;12.90;100.00;100576.91;1932316;73;26208;-76
2022/05/23 02:10:57;;;;;;;71.43;67.10;;;;;;;13.00;100.00;100575.90;1935003;73;26205;-76
2022/05/23 02:13:30;;;;;;;71.73;67.33;;;;;;;12.90;100.00;100577.47;1968894;72;26738;-77
2022/05/23 02:16:01;;;;;;;74.60;69.80;;;;;;;12.76;100.00;100574.66;1940545;73;26312;-77
2022/05/23 02:18:31;;;;;;;71.40;66.77;;;;;;;12.89;100.00;100570.23;1938693;73;26220;-76
2022/05/23 02:21:02;;;;;;;72.10;67.60;;;;;;;12.74;100.00;100568.02;1943368;73;26235;-77
2022/05/23 02:23:32;;;;;;;71.90;67.10;;;;;;;12.63;100.00;100563.73;1938034;73;26709;-77
2022/05/23 02:26:02;;;;;;;75.00;70.30;;;;;;;12.70;100.00;100566.97;1938124;73;26211;-76
2022/05/23 02:28:32;;;;;;;73.93;69.13;;;;;;;12.77;100.00;100569.34;1940652;73;26287;-79
2022/05/23 02:31:03;;;;;;;73.30;69.00;;;;;;;12.83;100.00;100559.77;1937813;73;26205;-77
2022/05/23 02:33:33;;;;;;;73.20;68.80;;;;;;;13.02;100.00;100549.91;1937901;74;26173;-79
2022/05/23 02:36:04;;;;;;;71.87;67.63;;;;;;;13.00;100.00;100547.45;1934382;73;26327;-79
2022/05/23 02:38:34;;;;;;;72.60;68.40;;;;;;;13.03;100.00;100537.63;1931285;73;26267;-77
2022/05/23 02:41:04;;;;;;;71.53;67.13;;;;;;;12.98;100.00;100537.16;1937935;73;26710;-78
2022/05/23 02:43:35;;;;;;;72.07;67.60;;;;;;;12.89;100.00;100539.57;1937972;73;26237;-78
2022/05/23 02:46:05;;;;;;;72.73;68.10;;;;;;;12.78;100.00;100539.78;1936263;73;26177;-79
2022/05/23 02:48:35;;;;;;;74.17;69.47;;;;;;;12.75;100.00;100543.16;2015491;70;26264;-76
2022/05/23 02:51:05;;;;;;;72.07;67.57;;;;;;;12.79;100.00;100535.84;2026768;70;26269;-77
2022/05/23 02:53:36;;;;;;;71.13;67.00;;;;;;;12.86;100.00;100533.23;2017105;70;26211;-78
2022/05/23 02:59:13;;;;;;;74.27;69.97;;;;;;;13.10;100.00;100517.98;2049449;69;32696;-79
2022/05/23 03:04:31;;;;;;;74.13;69.63;;;;;;;12.85;100.00;100521.81;2016210;70;26699;-76
2022/05/23 03:07:02;;;;;;;71.90;67.33;;;;;;;12.82;100.00;100526.62;2011308;70;26215;-75
2022/05/23 03:09:32;;;;;;;71.53;66.73;;;;;;;12.63;100.00;100517.76;2018361;70;26213;-77
2022/05/23 03:12:03;;;;;;;70.73;66.23;;;;;;;12.24;100.00;100522.34;2017992;70;26179;-79
2022/05/23 03:14:34;;;;;;;70.20;65.60;;;;;;;12.12;100.00;100524.78;2015589;70;26299;-76
2022/05/23 03:17:06;;;;;;;71.37;66.37;;;;;;;11.89;100.00;100529.91;2027286;70;26222;-80
2022/05/23 03:19:38;;;;;;;69.67;65.17;;;;;;;11.97;100.00;100519.48;2017057;70;26200;-77
2022/05/23 03:27:47;;;;;;;66.67;62.17;;;;;;;11.94;100.00;100506.73;2009795;70;26231;-75
2022/05/23 03:30:18;;;;;;;67.97;63.17;;;;;;;12.03;100.00;100504.89;2011621;70;26235;-78
2022/05/23 03:32:48;;;;;;;67.97;63.37;;;;;;;12.06;100.00;100498.73;2017180;70;26234;-76
2022/05/23 03:35:19;;;;;;;71.37;66.73;;;;;;;12.12;100.00;100487.20;2004131;70;26246;-79
2022/05/23 03:37:49;;;;;;;69.20;64.70;;;;;;;12.06;100.00;100489.83;2014510;70;26237;-76
2022/05/23 03:40:20;;;;;;;69.60;65.00;;;;;;;12.20;100.00;100492.63;2005189;70;26218;-75
2022/05/23 03:42:50;;;;;;;68.37;63.97;;;;;;;12.22;100.00;100487.59;2013859;70;26215;-80
2022/05/23 03:45:21;;;;;;;66.80;62.20;;;;;;;12.31;100.00;100492.73;2008676;70;26266;-76
2022/05/23 03:47:53;;;;;;;68.47;63.67;;;;;;;12.30;100.00;100493.86;2016136;70;26209;-77
2022/05/23 03:50:25;;;;;;;70.13;65.53;;;;;;;12.26;100.00;100492.25;2015305;70;26284;-75
2022/05/23 03:52:55;;;;;;;66.87;62.47;;;;;;;12.26;100.00;100492.25;2016878;70;26778;-77
2022/05/23 03:55:26;;;;;;;67.43;62.83;;;;;;;12.25;100.00;100485.59;2020786;70;26215;-78
2022/05/23 03:57:56;;;;;;;67.17;62.67;;;;;;;12.35;100.00;100476.23;1981250;71;26286;-77
2022/05/23 04:03:33;;;;;;;68.67;64.13;;;;;;;12.36;100.00;100474.55;2061464;69;33155;-80
2022/05/23 04:06:04;;;;;;;71.97;67.23;;;;;;;12.20;100.00;100473.97;1944702;73;26489;-78
2022/05/23 04:08:35;;;;;;;69.03;64.23;;;;;;;12.22;100.00;100473.11;1938133;73;26369;-77
2022/05/23 04:11:06;;;;;;;70.63;65.83;;;;;;;12.25;100.00;100485.02;1965420;72;26268;-76
2022/05/23 04:13:37;;;;;;;67.93;63.33;;;;;;;12.25;100.00;100476.67;1930866;73;26256;-77
2022/05/23 04:16:08;;;;;;;67.27;62.77;;;;;;;12.47;100.00;100479.34;1925891;73;26205;-77
2022/05/23 04:18:38;;;;;;;68.73;64.03;;;;;;;12.48;100.00;100477.66;2018291;70;26263;-79
2022/05/23 04:21:08;;;;;;;65.93;61.33;;;;;;;12.40;100.00;100480.33;2020223;70;26286;-79
2022/05/23 04:23:39;;;;;;;64.73;60.23;;;;;;;12.51;100.00;100472.86;2015643;70;26360;-77
2022/05/23 04:26:09;;;;;;;67.30;62.70;;;;;;;12.58;100.00;100462.12;1942771;73;26286;-77
2022/05/23 04:28:40;;;;;;;66.43;62.03;;;;;;;12.63;100.00;100463.98;1935004;73;26204;-77
2022/05/23 04:31:12;;;;;;;66.77;62.00;;;;;;;12.61;100.00;100458.74;1937942;74;26672;-77
2022/05/23 04:36:30;;;;;;;66.20;61.60;;;;;;;12.69;100.00;100458.59;1948133;73;26285;-76
2022/05/23 04:39:00;;;;;;;64.77;60.27;;;;;;;12.74;100.00;100458.48;1935484;73;26667;-78
2022/05/23 04:41:31;;;;;;;65.90;61.50;;;;;;;12.69;100.00;100453.84;1940699;73;26228;-77
2022/05/23 04:44:01;;;;;;;70.10;65.30;;;;;;;12.72;100.00;100453.22;1954331;73;26637;-78
2022/05/23 04:46:31;;;;;;;68.83;63.97;;;;;;;12.95;100.00;100450.53;1933141;73;26278;-78
2022/05/23 04:51:50;;;;;;;68.73;64.30;;;;;;;13.36;100.00;100443.52;1938428;73;26707;-78
2022/05/23 04:54:20;;;;;;;68.47;63.90;;;;;;;13.24;100.00;100431.52;1934371;73;26762;-77
2022/05/23 04:57:10;;;;;;;70.20;65.60;;;;;;;13.20;100.00;100432.72;1933754;73;26208;-78
2022/05/23 04:59:41;;;;;;;69.53;65.03;;;;;;;13.23;100.00;100442.41;1937990;74;26679;-75
2022/05/23 05:05:19;;;;;;;68.80;64.00;;;;;;;13.25;100.00;100435.14;2061344;69;32662;-75
2022/05/23 05:07:50;;;;;;;68.00;63.40;;;;;;;13.25;100.00;100446.30;2024248;71;26230;-77
2022/05/23 05:10:21;;;;;;;68.20;63.70;;;;;;;13.26;100.00;100448.78;2016177;70;26191;-77
2022/05/23 05:12:53;;;;;;;70.33;65.53;;;;;;;13.34;100.00;100445.25;2019904;70;26669;-77
2022/05/23 05:15:25;;;;;;;69.53;64.67;;;;;;;13.17;100.00;100445.91;2014569;70;26713;-76
2022/05/23 05:17:56;;;;;;;71.50;66.60;;;;;;;13.21;100.00;100444.70;2013081;70;26216;-77
2022/05/23 05:20:28;;;;;;;71.43;66.57;;;;;;;13.21;100.00;100444.14;2015849;70;26768;-76
2022/05/23 05:22:58;;;;;;;70.03;65.23;;;;;;;13.19;100.00;100443.61;2016828;70;26750;-76
2022/05/23 05:25:29;;;;;;;70.23;65.43;;;;;;;13.29;100.00;100443.96;2019581;70;26222;-77
2022/05/23 05:28:00;;;;;;;68.77;63.80;;;;;;;13.24;100.00;100444.07;2008194;70;26300;-75
2022/05/23 05:30:30;;;;;;;70.70;65.80;;;;;;;13.38;100.00;100439.86;2016693;70;26700;-80
2022/05/23 05:33:04;;;;;;;69.53;64.63;;;;;;;13.38;100.00;100435.11;2021129;70;26661;-80
2022/05/23 05:35:38;;;;;;;67.47;62.77;;;;;;;13.58;100.00;100427.65;2022474;70;26770;-76
2022/05/23 05:38:13;;;;;;;69.10;64.23;;;;;;;13.57;100.00;100434.93;2015397;70;26217;-79
2022/05/23 05:40:47;;;;;;;68.97;64.17;;;;;;;13.60;100.00;100434.32;2006916;70;26223;-77
2022/05/23 05:43:20;;;;;;;66.47;61.57;;;;;;;13.48;100.00;100426.48;2012094;70;26682;-77
2022/05/23 05:45:54;;;;;;;69.53;64.77;;;;;;;13.50;100.00;100433.16;2013350;70;26238;-75
2022/05/23 05:48:26;;;;;;;70.27;65.57;;;;;;;13.62;100.00;100427.27;2017269;70;26227;-77
2022/05/23 05:50:57;;;;;;;70.20;65.20;;;;;;;13.65;100.00;100421.61;2012646;70;27230;-76
2022/05/23 05:56:35;;;;;;;70.77;65.80;;;;;;;13.78;100.00;100402.59;2006829;69;33138;-75
2022/05/23 05:59:06;;;;;;;72.43;67.40;;;;;;;13.61;100.00;100414.45;1978449;72;26208;-74
2022/05/23 06:01:36;;;;;;;74.03;68.93;;;;;;;13.72;100.00;100408.63;1910299;74;26223;-79
2022/05/23 06:04:07;;;;;;;72.87;67.87;;;;;;;13.86;100.00;100410.20;1896056;75;26289;-75
2022/05/23 06:12:48;;;;;;;73.60;68.50;;;;;;;13.95;100.00;100401.88;1939451;73;26857;-82
2022/05/23 06:15:18;;;;;;;77.37;72.00;;;;;;;13.75;100.00;100397.66;1951114;73;26316;-76
2022/05/23 06:17:50;;;;;;;73.57;68.30;;;;;;;14.00;100.00;100395.60;1937951;73;26290;-82
2022/05/23 06:20:25;;;;;;;70.67;65.67;;;;;;;14.03;100.00;100392.16;1934285;73;26782;-83
2022/05/23 06:26:21;;;;;;;70.30;65.30;;;;;;;14.08;100.00;100388.41;1945805;73;26842;-77
2022/05/23 06:28:53;;;;;;;72.17;67.13;;;;;;;14.07;100.00;100386.79;1937942;74;26624;-76
2022/05/23 06:31:23;;;;;;;72.53;67.43;;;;;;;14.43;100.00;100379.09;1931621;73;26274;-83
2022/05/23 06:33:54;;;;;;;73.50;68.47;;;;;;;14.45;100.00;100375.42;1934733;73;26216;-83
2022/05/23 06:36:24;;;;;;;72.70;67.73;;;;;;;14.73;100.00;100360.62;1937884;74;26260;-76
2022/05/23 06:38:55;;;;;;;70.70;65.80;;;;;;;14.73;100.00;100359.80;1940393;73;26244;-76
2022/05/23 06:41:25;;;;;;;73.03;68.07;;;;;;;14.78;100.00;100356.85;1945876;73;26219;-84
2022/05/23 06:43:55;;;;;;;71.47;66.57;;;;;;;15.07;100.00;100353.45;1937833;73;26727;-75
2022/05/23 06:46:25;;;;;;;71.77;66.97;;;;;;;15.31;100.00;100347.64;1933286;73;26215;-81
2022/05/23 06:48:55;;;;;;;71.40;66.80;;;;;;;15.30;100.00;100338.99;1945018;73;26233;-75
2022/05/23 06:51:26;;;;;;;73.00;68.10;;;;;;;15.42;100.00;100334.12;1937923;73;26216;-76
2022/05/23 06:53:57;;;;;;;72.70;67.80;;;;;;;15.40;100.00;100323.25;1935090;73;26208;-85
2022/05/23 06:56:28;;;;;;;72.63;67.93;;;;;;;15.36;100.00;100312.47;1939733;73;26291;-75
2022/05/23 06:58:58;;;;;;;72.03;67.33;;;;;;;15.40;100.00;100310.66;1938069;74;26615;-76
2022/05/23 07:01:29;;;;;;;70.20;65.50;;;;;;;15.41;100.00;100314.28;1938061;74;26188;-83
2022/05/23 07:03:59;;;;;;;72.73;68.07;;;;;;;15.51;100.00;100313.98;1937977;74;26270;-74
2022/05/23 07:12:23;;;;;;;71.83;67.13;;;;;;;15.75;100.00;100307.84;1936202;74;26282;-70
2022/05/23 07:14:56;;;;;;;74.50;69.80;;;;;;;15.84;100.00;100297.44;1936959;74;26191;-70
2022/05/23 07:17:27;;;;;;;75.03;70.13;;;;;;;15.92;100.00;100297.41;1937094;74;26212;-73
2022/05/23 07:19:57;;;;;;;75.07;70.17;;;;;;;15.99;100.00;100291.89;1937067;74;26217;-74
2022/05/23 07:25:34;;;;;;;75.23;70.33;;;;;;;16.28;100.00;100285.75;2042054;69;32612;-72
2022/05/23 07:28:06;;;;;;;73.97;68.93;;;;;;;16.45;100.00;100288.21;1948755;73;26686;-73
2022/05/23 07:30:36;;;;;;;68.67;63.97;;;;;;;16.58;100.00;100287.18;1936291;73;26192;-73
2022/05/23 07:33:07;;;;;;;70.43;65.73;;;;;;;16.62;100.00;100286.74;2011113;70;26214;-71
2022/05/23 07:35:38;;;;;;;71.60;67.00;;;;;;;16.71;100.00;100288.91;2007159;70;26740;-71
2022/05/23 07:38:09;;;;;;;70.53;66.03;;;;;;;16.93;100.00;100282.98;2022901;70;26278;-70
2022/05/23 07:40:39;;;;;;;69.37;64.97;;;;;;;16.94;100.00;100281.84;2022386;70;26261;-72
2022/05/23 07:43:09;;;;;;;71.63;67.07;;;;;;;16.98;100.00;100277.18;2018922;70;26227;-71
2022/05/23 07:45:39;;;;;;;70.67;66.00;;;;;;;17.07;100.00;100282.72;2017672;70;26217;-72
2022/05/23 07:48:10;;;;;;;70.63;66.10;;;;;;;17.12;100.00;100277.70;2016826;70;26209;-71
2022/05/23 07:50:43;;;;;;;72.47;67.57;;;;;;;17.14;100.00;100279.60;2016633;71;26203;-71
2022/05/23 08:01:37;;;;;;;72.53;68.03;;;;;;;17.22;100.00;100248.41;1981155;72;24649;-72
2022/05/23 08:04:08;;;;;;;70.93;66.47;;;;;;;17.15;100.00;100253.19;1990267;72;26190;-71
2022/05/23 08:06:39;;;;;;;72.63;68.07;;;;;;;17.16;100.00;100242.17;1976137;72;26227;-72
2022/05/23 08:09:09;;;;;;;70.23;65.63;;;;;;;17.17;100.00;100240.19;1987736;72;26263;-71
2022/05/23 08:11:41;;;;;;;72.07;67.57;;;;;;;17.35;100.00;100232.43;1984516;72;26250;-72
2022/05/23 08:14:12;;;;;;;70.67;66.33;;;;;;;17.38;100.00;100234.54;1980216;72;26714;-72
2022/05/23 08:16:42;;;;;;;73.17;68.77;;;;;;;17.34;100.00;100233.02;1980296;72;26175;-70
2022/05/23 08:19:12;;;;;;;74.27;69.57;;;;;;;17.34;100.00;100233.02;1978736;72;26205;-71
2022/05/23 08:24:51;;;;;;;71.43;67.20;;;;;;;17.74;100.00;100207.42;2048654;69;32789;-78
2022/05/23 08:27:21;;;;;;;67.83;62.47;;;;;;;17.74;100.00;100207.42;2016390;70;26303;-74
2022/05/23 08:29:52;;;;;;;67.40;62.60;;;;;;;18.29;100.00;100202.39;2012819;70;24185;-74
2022/05/23 08:32:22;;;;;;;66.10;62.20;;;;;;;18.53;100.00;100201.80;2014365;70;26802;-74
2022/05/23 08:34:53;;;;;;;66.27;62.57;;;;;;;18.76;100.00;100193.67;2016877;70;26721;-74
2022/05/23 08:37:24;;;;;;;60.10;56.60;;;;;;;18.81;100.00;100194.02;2017635;70;26658;-77
2022/05/23 08:39:55;;;;;;;60.60;57.10;;;;;;;18.79;100.00;100190.72;1931007;73;24275;-73
2022/05/23 08:42:32;;;;;;;60.03;56.43;;;;;;;18.98;100.00;100190.91;1937980;73;24196;-74
2022/05/23 08:45:10;;;;;;;61.80;57.53;;;;;;;18.99;100.00;100189.73;1939324;73;26390;-74
2022/05/23 08:47:44;;;;;;;66.00;62.50;;;;;;;19.00;100.00;100190.77;2016178;70;24184;-77
2022/05/23 08:50:18;;;;;;;64.90;59.83;;;;;;;18.84;100.00;100191.30;2010983;70;24175;-78
2022/05/23 08:52:52;;;;;;;62.43;58.33;;;;;;;18.88;100.00;100182.38;2016907;70;24138;-78
2022/05/23 08:55:25;;;;;;;60.53;56.27;;;;;;;19.19;100.00;100178.03;2002996;70;24182;-77
2022/05/23 09:01:08;;;;;;;65.13;61.53;;;;;;;19.06;100.00;100173.87;2060908;69;30582;-73
2022/05/23 09:03:42;;;;;;;70.83;66.83;;;;;;;18.22;100.00;100177.70;2019072;70;24137;-77
2022/05/23 09:06:15;;;;;;;69.53;65.33;;;;;;;17.98;100.00;100178.52;1930749;73;24249;-72
2022/05/23 09:11:59;;;;;;;68.30;64.50;;;;;;;17.95;100.00;100177.81;2050680;69;30554;-74
2022/05/23 09:14:30;;;;;;;67.60;63.80;;;;;;;17.93;100.00;100185.77;2012461;70;24158;-77
2022/05/23 09:17:01;;;;;;;65.53;61.83;;;;;;;17.83;100.00;100187.65;2021491;70;24238;-78
2022/05/23 09:19:37;;;;;;;65.77;62.03;;;;;;;18.06;100.00;100179.55;2012858;71;24113;-75
2022/05/23 09:22:14;;;;;;;64.77;61.20;;;;;;;18.34;100.00;100176.27;2014865;70;24729;-73
2022/05/23 09:24:47;;;;;;;61.13;57.67;;;;;;;18.47;100.00;100170.04;1942384;73;24234;-74
2022/05/23 09:27:21;;;;;;;61.87;58.47;;;;;;;18.50;100.00;100163.70;2014228;70;24166;-77
2022/05/23 09:29:55;;;;;;;59.00;55.73;;;;;;;18.64;100.00;100171.20;1925377;73;24164;-73
2022/05/23 09:32:27;;;;;;;60.23;56.83;;;;;;;18.60;100.00;100174.50;2011059;70;24142;-77
2022/05/23 09:35:01;;;;;;;59.50;56.37;;;;;;;18.76;100.00;100161.90;2022250;70;24152;-73
2022/05/23 09:37:35;;;;;;;57.03;54.10;;;;;;;18.94;100.00;100157.03;2012649;70;24170;-74
2022/05/23 09:40:12;;;;;;;56.37;53.47;;;;;;;19.09;100.00;100159.65;2016793;70;24242;-77
2022/05/23 09:48:21;;;;;;;52.50;49.70;;;;;;;19.34;100.00;100147.70;2007123;70;24240;-74
2022/05/23 09:50:58;;;;;;;52.13;49.33;;;;;;;19.34;100.00;100149.89;2020222;70;24148;-77
2022/05/23 09:53:32;;;;;;;49.23;46.50;;;;;;;19.42;100.00;100143.30;2015397;70;24178;-77
2022/05/23 09:56:26;;;;;;;42.30;40.27;;;;;;;19.50;100.00;100140.92;1943571;73;24599;-72
2022/05/23 09:58:58;;;;;;;41.03;38.90;;;;;;;19.53;100.00;100133.73;1940954;73;24297;-77
2022/05/23 10:01:30;;;;;;;39.60;37.70;;;;;;;19.37;100.00;100132.30;1980187;72;24165;-77
2022/05/23 10:04:02;;;;;;;40.77;38.63;;;;;;;19.53;100.00;100137.96;1972954;72;24271;-72
2022/05/23 10:06:40;;;;;;;42.27;39.87;;;;;;;19.68;100.00;100137.75;1986400;72;24140;-72
2022/05/23 10:09:12;;;;;;;37.63;35.63;;;;;;;19.84;100.00;100139.97;1979719;72;24457;-76
2022/05/23 10:11:44;;;;;;;36.63;34.73;;;;;;;19.68;100.00;100140.57;1978230;71;24251;-73
2022/05/23 10:14:19;;;;;;;40.87;38.77;;;;;;;19.50;100.00;100136.70;1979070;72;24170;-76
2022/05/23 10:16:52;;;;;;;39.70;37.60;;;;;;;19.35;100.00;100139.45;1980413;72;24126;-73
2022/05/23 10:19:31;;;;;;;43.10;40.70;;;;;;;19.16;100.00;100140.16;1980409;72;24239;-76
2022/05/23 10:22:18;;;;;;;43.27;40.97;;;;;;;18.99;100.00;100144.12;1980009;72;24127;-77
2022/05/23 10:24:55;;;;;;;46.83;44.33;;;;;;;18.80;100.00;100138.32;1979630;72;24172;-72
2022/05/23 10:27:39;;;;;;;45.37;42.97;;;;;;;18.80;100.00;100136.91;1979380;72;26660;-72
2022/05/23 10:30:12;;;;;;;44.50;42.27;;;;;;;18.83;100.00;100134.78;1978989;72;24115;-77
2022/05/23 10:32:48;;;;;;;45.27;42.77;;;;;;;18.75;100.00;100134.34;1979841;72;24168;-77
2022/05/23 10:35:21;;;;;;;46.93;44.43;;;;;;;18.53;100.00;100145.55;1979647;72;24123;-77
2022/05/23 10:37:52;;;;;;;53.27;50.37;;;;;;;18.56;100.00;100138.41;1979794;72;24572;-72
2022/05/23 10:43:16;;;;;;;51.83;49.03;;;;;;;18.37;100.00;100148.02;1979673;72;24727;-74
2022/05/23 10:45:50;;;;;;;53.33;50.20;;;;;;;18.53;100.00;100142.73;1979873;72;26729;-73
2022/05/23 10:48:45;;;;;;;55.20;51.43;;;;;;;18.43;100.00;100143.22;1979121;72;26364;-73
2022/05/23 10:51:23;;;;;;;52.43;49.43;;;;;;;19.02;100.00;100142.57;1979605;72;24126;-73
2022/05/23 10:54:03;;;;;;;54.20;51.20;;;;;;;18.70;100.00;100136.00;1979061;72;24577;-77
2022/05/23 10:56:41;;;;;;;60.90;57.57;;;;;;;18.34;100.00;100141.13;1979681;72;24179;-72
2022/05/23 11:02:28;;;;;;;64.93;61.30;;;;;;;18.33;100.00;100140.06;2061506;69;31092;-78
2022/05/23 11:05:04;;;;;;;65.17;61.67;;;;;;;18.04;100.00;100143.98;2014063;70;24162;-75
2022/05/23 11:10:56;;;;;;;60.17;56.83;;;;;;;17.81;100.00;100136.59;2048156;69;30640;-79
2022/05/23 11:13:34;;;;;;;60.10;56.80;;;;;;;17.78;100.00;100144.33;2006327;70;24637;-77
2022/05/23 11:16:18;;;;;;;61.47;58.07;;;;;;;17.72;100.00;100147.12;1937536;74;24608;-77
2022/05/23 11:18:59;;;;;;;60.93;57.50;;;;;;;17.71;100.00;100140.68;1944327;73;24204;-74
2022/05/23 11:21:33;;;;;;;62.10;58.57;;;;;;;17.62;100.00;100141.41;1937950;74;24171;-77
2022/05/23 11:24:08;;;;;;;58.97;55.67;;;;;;;17.68;100.00;100146.19;1936827;73;24155;-74
2022/05/23 11:26:42;;;;;;;59.37;56.17;;;;;;;17.61;100.00;100141.16;1939429;73;24441;-74
2022/05/23 11:34:58;;;;;;;57.57;54.37;;;;;;;17.63;100.00;100132.37;1941368;73;24164;-74
2022/05/23 11:37:45;;;;;;;55.80;52.70;;;;;;;17.57;100.00;100130.36;1970586;72;24190;-77
2022/05/23 11:40:37;;;;;;;57.90;54.47;;;;;;;17.56;100.00;100128.72;1935014;73;24239;-74
2022/05/23 11:43:10;;;;;;;56.07;52.87;;;;;;;17.71;100.00;100125.23;1932473;73;26299;-74
2022/05/23 11:46:03;;;;;;;59.00;55.50;;;;;;;17.85;100.00;100122.66;1936365;73;24164;-77
2022/05/23 11:48:47;;;;;;;62.43;58.83;;;;;;;17.84;100.00;100123.24;2014967;71;24592;-75
2022/05/23 11:51:47;;;;;;;56.40;53.30;;;;;;;17.78;100.00;100125.25;1937928;74;24627;-76
2022/05/23 11:54:42;;;;;;;57.73;54.53;;;;;;;17.79;100.00;100126.31;1915582;73;24620;-76
2022/05/23 11:57:18;;;;;;;61.20;58.03;;;;;;;17.81;100.00;100119.73;1949829;72;24153;-83
2022/05/23 12:00:22;;;;;;;59.27;55.97;;;;;;;17.83;100.00;100120.22;1907059;74;24629;-76
2022/05/23 12:03:17;;;;;;;57.20;53.77;;;;;;;17.87;100.00;100114.13;1912654;74;24172;-83
2022/05/23 12:05:48;;;;;;;57.63;54.33;;;;;;;17.89;100.00;100111.77;1910682;75;24121;-75
2022/05/23 12:08:32;;;;;;;55.90;52.70;;;;;;;17.94;100.00;100113.53;1931587;73;24153;-76
2022/05/23 12:11:05;;;;;;;60.10;56.50;;;;;;;17.90;100.00;100114.83;1938186;74;24187;-80
2022/05/23 12:13:48;;;;;;;59.20;55.90;;;;;;;17.76;100.00;100117.16;1935837;74;24213;-84
2022/05/23 12:16:51;;;;;;;54.50;51.20;;;;;;;18.01;100.00;100110.97;1937204;74;26743;-78
2022/05/23 12:19:28;;;;;;;57.07;53.60;;;;;;;17.95;100.00;100108.15;1882942;76;24191;-82
2022/05/23 12:22:20;;;;;;;55.50;52.37;;;;;;;18.05;100.00;100107.68;1904058;75;24120;-83
2022/05/23 12:28:28;;;;;;;48.23;45.53;;;;;;;18.20;100.00;100092.89;2053117;69;31081;-72
2022/05/23 12:34:34;;;;;;;45.03;42.63;;;;;;;18.46;100.00;100079.23;2060919;69;30652;-70
2022/05/23 12:37:06;;;;;;;43.80;41.47;;;;;;;18.59;100.00;100089.29;1935743;73;24397;-76
2022/05/23 12:43:12;;;;;;;35.13;32.93;;;;;;;18.84;100.00;100084.37;2060441;69;30554;-71
2022/05/23 12:45:58;;;;;;;32.43;30.67;;;;;;;18.75;100.00;100077.26;2012553;70;26241;-76
2022/05/23 12:48:49;;;;;;;30.30;28.50;;;;;;;18.87;100.00;100072.39;1937728;74;24213;-77
2022/05/23 12:55:05;;;;;;;29.20;27.30;;;;;;;18.69;100.00;100071.67;1924012;73;26377;-77
2022/05/23 12:58:03;;;;;;;30.67;28.80;;;;;;;18.58;100.00;100069.36;1908274;74;24292;-72
2022/05/23 13:00:37;;;;;;;32.37;30.47;;;;;;;18.46;100.00;100069.97;1894562;74;24221;-78
2022/05/23 13:03:13;;;;;;;32.80;30.80;;;;;;;18.36;100.00;100076.91;1893304;74;24253;-72
2022/05/23 13:05:46;;;;;;;34.10;31.97;;;;;;;18.22;100.00;100077.91;1897630;74;24170;-77
2022/05/23 13:11:30;;;;;;;38.93;36.77;;;;;;;17.94;100.00;100079.23;2042224;69;32679;-71
2022/05/23 13:14:01;;;;;;;37.57;35.37;;;;;;;17.99;100.00;100086.02;2018863;70;24222;-71
2022/05/23 13:16:33;;;;;;;37.40;34.97;;;;;;;18.01;100.00;100084.27;2016922;70;26539;-71
2022/05/23 13:22:10;;;;;;;35.83;33.63;;;;;;;18.06;100.00;100070.77;2012692;70;24737;-73
2022/05/23 13:24:51;;;;;;;35.00;33.20;;;;;;;18.08;100.00;100066.22;2014493;70;24144;-72
2022/05/23 13:27:25;;;;;;;32.70;30.90;;;;;;;18.13;100.00;100075.81;2020942;70;24263;-72
2022/05/23 13:29:59;;;;;;;33.43;31.53;;;;;;;18.12;100.00;100071.36;1933354;73;26401;-72
2022/05/23 13:32:30;;;;;;;31.37;29.67;;;;;;;18.22;100.00;100068.06;1931766;73;26343;-78
2022/05/23 13:35:04;;;;;;;31.57;29.70;;;;;;;18.24;100.00;100071.32;2011008;70;24580;-78
2022/05/23 13:37:37;;;;;;;32.20;30.40;;;;;;;18.28;100.00;100068.03;2001557;70;24157;-78